Retz, Austria
Current Conditions -  °F | °C
As of 12:00 PM on Sunday 23 Nov 2014 (Local Time) from LKNA Reporting Station
Broken Clouds Broken Clouds  
Wind Chill: 35°   Ceiling: 1400
Heat Index: 41°   Visibility: 6mi
Dew Point: 37°   Wind: 10mph
Humidity: 87%   Direction: 140°SE
Pressure: 30.36"   Gusts: NA
Location:  48.76°N, 15.95°E
Report Text: LKNA 231000Z 14009KT 9000 BKN014 05/03 Q1028 NOSIG
Loading
Personal Weather Stations






























Interactive Weather Map New forecast layout! Learn more

10-Day Weather Forecast

Advertisements
Track Severe Weather on mobile